Terminal Aerodrome Forecast
Issued by NWS Wilmington, OH

Current Version | Previous Version | Text Only | Print | Product List | Glossary Off
Versions: 1 2 3 4 5 6 7 8 9 10 11 12 13 14 15 16 17 18 19 20 21 22 23

000
FTUS41 KILN 271300 AAB
TAFILN
TAF AMD
KILN 271339Z 2714/2812 30005KT P6SM SCT035
      TEMPO 2714/2715 4SM -SN BKN035
     FM280100 06003KT P6SM FEW035 SCT150=

USA.gov is the U.S. government's official web portal to all federal, state and local government web resources and services.